createdAt,value
2023-05-17T00:02:21.986Z,94595.94
2023-05-17T00:04:54.958Z,94602.03
2023-05-17T00:07:32.099Z,94601.94
2023-05-17T00:10:13.382Z,94606.59
2023-05-17T00:12:46.998Z,94608.16
2023-05-17T00:15:18.190Z,94606.25
2023-05-17T00:17:50.079Z,94615.84
2023-05-17T00:20:25.286Z,94616.22
2023-05-17T00:22:55.369Z,94610.25
2023-05-17T00:25:24.666Z,94617.03
2023-05-17T00:27:56.293Z,94617.25
2023-05-17T00:30:25.587Z,94615.22
2023-05-17T00:33:01.666Z,94623.69
2023-05-17T00:35:30.926Z,94620.53
2023-05-17T00:38:01.753Z,94619.31
2023-05-17T00:40:39.265Z,94627.69
2023-05-17T00:43:16.304Z,94623.91
2023-05-17T00:45:54.758Z,94632.66
2023-05-17T00:48:31.993Z,94624.53
2023-05-17T00:51:02.073Z,94631.16
2023-05-17T00:53:35.940Z,94637.34
2023-05-17T00:56:21.253Z,94634.31
2023-05-17T00:59:00.789Z,94638.16
2023-05-17T01:01:35.104Z,94638.41
2023-05-17T01:04:05.880Z,94636.94
2023-05-17T01:06:37.851Z,94637.47
2023-05-17T01:09:10.789Z,94639.97
2023-05-17T01:11:52.297Z,94642.56
2023-05-17T01:14:43.805Z,94637.34
2023-05-17T01:17:18.394Z,94637.81
2023-05-17T01:20:17.065Z,94636.13
2023-05-17T01:26:16.877Z,94642.09
2023-05-17T01:28:54.436Z,94648.19
2023-05-17T01:31:48.523Z,94660.69
2023-05-17T01:34:51.338Z,94647.34
2023-05-17T01:37:36.184Z,94656.19
2023-05-17T01:40:12.604Z,94654.13
2023-05-17T01:42:56.225Z,94649.66
2023-05-17T01:45:47.760Z,94658.81
2023-05-17T01:48:52.881Z,94659.81
2023-05-17T01:51:30.346Z,94661.84
2023-05-17T01:54:26.921Z,94656.66
2023-05-17T01:57:03.179Z,94660.84
2023-05-17T01:59:37.041Z,94658.41
2023-05-17T02:02:12.010Z,94659.53
2023-05-17T02:04:42.432Z,94655.91
2023-05-17T02:07:12.172Z,94655.13
2023-05-17T02:09:41.653Z,94653.91
2023-05-17T02:12:13.137Z,94664.38
2023-05-17T02:14:40.246Z,94667.66
2023-05-17T02:17:13.889Z,94664.38
2023-05-17T02:19:44.955Z,94662.03
2023-05-17T02:22:14.129Z,94661.00
2023-05-17T02:24:43.533Z,94660.34
2023-05-17T02:27:16.572Z,94665.31
2023-05-17T02:29:45.508Z,94662.94
2023-05-17T02:32:18.443Z,94666.53
2023-05-17T02:34:53.353Z,94676.13
2023-05-17T02:37:24.925Z,94674.03
2023-05-17T02:39:56.336Z,94675.25
2023-05-17T02:42:24.853Z,94677.63
2023-05-17T02:44:56.482Z,94673.13
2023-05-17T02:47:25.908Z,94669.38
2023-05-17T02:49:57.681Z,94675.94
2023-05-17T02:52:26.994Z,94675.59
2023-05-17T02:55:00.494Z,94684.97
2023-05-17T02:57:32.620Z,94677.06
2023-05-17T03:00:04.213Z,94681.22
2023-05-17T03:02:50.415Z,94684.41
2023-05-17T03:05:25.105Z,94689.00
2023-05-17T03:07:58.122Z,94690.13
2023-05-17T03:10:38.042Z,94683.63
2023-05-17T03:13:07.424Z,94682.84
2023-05-17T03:15:44.602Z,94685.56
2023-05-17T03:18:16.849Z,94686.31
2023-05-17T03:20:51.704Z,94686.88
2023-05-17T03:23:20.360Z,94688.69
2023-05-17T03:26:02.228Z,94686.00
2023-05-17T03:28:34.974Z,94689.16
2023-05-17T03:31:07.094Z,94687.78
2023-05-17T03:33:41.513Z,94685.88
2023-05-17T03:36:09.795Z,94695.69
2023-05-17T03:38:42.434Z,94692.19
2023-05-17T03:41:11.900Z,94701.69
2023-05-17T03:43:47.596Z,94692.66
2023-05-17T03:46:17.820Z,94706.16
2023-05-17T03:48:48.911Z,94698.41
2023-05-17T03:51:19.713Z,94697.16
2023-05-17T03:53:53.668Z,94701.09
2023-05-17T03:56:22.825Z,94705.38
2023-05-17T03:58:52.888Z,94709.22
2023-05-17T04:01:25.183Z,94709.34
2023-05-17T04:03:56.808Z,94703.69
2023-05-17T04:06:25.853Z,94708.56
2023-05-17T04:08:57.435Z,94712.28
2023-05-17T04:11:27.911Z,94719.03
2023-05-17T04:14:02.556Z,94714.50
2023-05-17T04:16:34.330Z,94712.94
2023-05-17T04:19:10.901Z,94722.97
2023-05-17T04:21:49.640Z,94711.91
2023-05-17T04:24:21.394Z,94725.56
2023-05-17T04:26:51.488Z,94715.09
2023-05-17T04:29:29.341Z,94720.72
2023-05-17T04:31:59.322Z,94725.34
2023-05-17T04:34:32.827Z,94723.19
2023-05-17T04:37:08.680Z,94726.81
2023-05-17T04:39:39.347Z,94738.88
2023-05-17T04:42:09.662Z,94730.88
2023-05-17T04:44:50.935Z,94736.94
2023-05-17T04:47:21.315Z,94738.78
2023-05-17T04:49:53.799Z,94743.38
2023-05-17T04:52:28.461Z,94740.91
2023-05-17T04:54:58.377Z,94747.78
2023-05-17T04:57:30.162Z,94746.31
2023-05-17T05:00:14.614Z,94741.78
2023-05-17T05:02:45.864Z,94745.31
2023-05-17T05:05:16.407Z,94753.84
2023-05-17T05:08:12.595Z,94753.53
2023-05-17T05:10:53.366Z,94755.56
2023-05-17T05:13:24.716Z,94765.25
2023-05-17T05:15:55.765Z,94759.72
2023-05-17T05:18:28.989Z,94764.00
2023-05-17T05:21:09.292Z,94768.50
2023-05-17T05:23:39.312Z,94765.91
2023-05-17T05:26:08.561Z,94769.84
2023-05-17T05:28:38.767Z,94770.19
2023-05-17T05:31:07.296Z,94771.44
2023-05-17T05:33:44.201Z,94778.41
2023-05-17T05:36:18.521Z,94774.78
2023-05-17T05:38:56.146Z,94782.19
2023-05-17T05:41:26.301Z,94775.84
2023-05-17T05:44:03.855Z,94783.97
2023-05-17T05:46:31.654Z,94783.38
2023-05-17T05:49:04.405Z,94786.38
2023-05-17T05:51:35.336Z,94788.06
2023-05-17T05:54:07.547Z,94782.28
2023-05-17T05:56:41.854Z,94782.19
2023-05-17T05:59:16.311Z,94785.25
2023-05-17T06:02:07.854Z,94794.72
2023-05-17T06:04:45.584Z,94795.44
2023-05-17T06:07:16.515Z,94795.00
2023-05-17T06:09:58.786Z,94789.44
2023-05-17T06:12:27.635Z,94794.63
2023-05-17T06:14:56.249Z,94786.19
2023-05-17T06:17:29.654Z,94798.78
2023-05-17T06:20:05.336Z,94791.06
2023-05-17T06:22:34.479Z,94793.69
2023-05-17T06:25:05.121Z,94791.69
2023-05-17T06:27:52.795Z,94794.56
2023-05-17T06:30:28.679Z,94799.66
2023-05-17T06:33:07.480Z,94792.22
2023-05-17T06:35:56.385Z,94794.81
2023-05-17T06:38:39.177Z,94798.34
2023-05-17T06:41:06.419Z,94789.25
2023-05-17T06:43:38.469Z,94796.91
2023-05-17T06:46:13.437Z,94793.69
2023-05-17T06:48:45.343Z,94798.28
2023-05-17T06:51:25.512Z,94797.19
2023-05-17T06:54:02.905Z,94789.38
2023-05-17T06:56:34.326Z,94793.81
2023-05-17T06:59:03.693Z,94795.63
2023-05-17T07:01:55.838Z,94804.63
2023-05-17T07:04:35.985Z,94804.50
2023-05-17T07:07:31.011Z,94804.47
2023-05-17T07:10:03.670Z,94807.72
2023-05-17T07:12:38.274Z,94816.13
2023-05-17T07:15:09.696Z,94815.34
2023-05-17T07:21:06.379Z,94811.66
2023-05-17T07:23:35.884Z,94815.28
2023-05-17T07:26:10.014Z,94822.69
2023-05-17T07:28:54.576Z,94826.06
2023-05-17T07:34:54.261Z,94831.25
2023-05-17T07:40:52.045Z,94828.81
2023-05-17T07:46:54.966Z,94830.25
2023-05-17T07:50:09.478Z,94830.66
2023-05-17T07:58:28.922Z,94836.34
2023-05-17T08:01:16.298Z,94846.00
2023-05-17T08:04:21.900Z,94835.00
2023-05-17T08:06:50.432Z,94838.31
2023-05-17T08:09:21.615Z,94847.06
2023-05-17T08:11:49.629Z,94836.19
2023-05-17T08:14:23.726Z,94843.78
2023-05-17T08:17:01.993Z,94846.25
2023-05-17T08:19:34.562Z,94841.28
2023-05-17T08:22:05.139Z,94843.88
2023-05-17T08:24:32.875Z,94836.31
2023-05-17T08:27:11.836Z,94832.16
2023-05-17T08:29:40.463Z,94836.19
2023-05-17T08:32:17.545Z,94833.09
2023-05-17T08:37:44.287Z,94837.63
2023-05-17T08:40:15.849Z,94839.94
2023-05-17T08:42:44.527Z,94839.22
2023-05-17T08:45:17.884Z,94839.16
2023-05-17T08:47:50.288Z,94845.16
2023-05-17T08:50:18.990Z,94844.00
2023-05-17T08:52:59.144Z,94837.19
2023-05-17T08:55:36.655Z,94845.34
2023-05-17T09:00:54.143Z,94839.66
2023-05-17T09:03:25.331Z,94833.22
2023-05-17T09:06:03.297Z,94828.72
2023-05-17T09:12:06.606Z,94832.31
2023-05-17T09:14:39.907Z,94829.34
2023-05-17T09:20:27.714Z,94823.09
2023-05-17T09:23:22.576Z,94826.97
2023-05-17T09:25:55.654Z,94824.16
2023-05-17T09:28:46.937Z,94831.28
2023-05-17T09:31:36.435Z,94825.16
2023-05-17T09:34:24.206Z,94828.69
2023-05-17T09:36:56.952Z,94835.75
2023-05-17T09:39:38.983Z,94828.97
2023-05-17T09:42:21.759Z,94836.19
2023-05-17T09:45:25.032Z,94834.16
2023-05-17T09:47:56.390Z,94829.22
2023-05-17T09:50:43.338Z,94828.66
2023-05-17T10:00:24.562Z,94837.00
2023-05-17T10:02:56.768Z,94838.31
2023-05-17T10:05:30.715Z,94846.28
2023-05-17T10:07:59.015Z,94838.88
2023-05-17T10:10:34.700Z,94841.63
2023-05-17T10:13:08.223Z,94837.31
2023-05-17T10:15:40.132Z,94828.69
2023-05-17T10:18:13.238Z,94834.47
2023-05-17T10:20:41.914Z,94830.88
2023-05-17T10:26:41.852Z,94835.16
2023-05-17T10:29:35.311Z,94829.91
2023-05-17T10:39:29.560Z,94829.03
2023-05-17T10:42:13.695Z,94823.81
2023-05-17T10:45:05.737Z,94828.50
2023-05-17T10:47:49.544Z,94829.03
2023-05-17T10:50:31.858Z,94822.13
2023-05-17T10:53:05.183Z,94822.41
2023-05-17T10:55:47.245Z,94813.78
2023-05-17T10:58:25.846Z,94822.41
2023-05-17T11:00:59.956Z,94832.22
2023-05-17T11:03:40.229Z,94823.56
2023-05-17T11:06:30.564Z,94813.78
2023-05-17T11:09:20.147Z,94822.75
2023-05-17T11:12:13.895Z,94816.00
2023-05-17T11:14:47.646Z,94816.44
2023-05-17T11:17:57.731Z,94817.22
2023-05-17T11:20:29.351Z,94823.47
2023-05-17T11:23:01.287Z,94823.41
2023-05-17T11:26:15.235Z,94817.19
2023-05-17T11:28:45.036Z,94827.78
2023-05-17T11:31:19.853Z,94828.44
2023-05-17T11:33:50.593Z,94822.97
2023-05-17T11:36:21.716Z,94824.63
2023-05-17T11:39:11.409Z,94820.00
2023-05-17T11:41:59.952Z,94816.88
2023-05-17T11:44:38.385Z,94823.19
2023-05-17T11:47:12.072Z,94816.53
2023-05-17T11:49:42.976Z,94809.44
2023-05-17T11:52:11.829Z,94809.78
2023-05-17T11:54:43.474Z,94807.31
2023-05-17T11:57:19.156Z,94805.50
2023-05-17T11:59:59.761Z,94806.63
2023-05-17T12:02:32.134Z,94801.31
2023-05-17T12:05:24.264Z,94812.03
2023-05-17T12:08:15.711Z,94799.78
2023-05-17T12:10:52.971Z,94798.25
2023-05-17T12:13:22.616Z,94789.50
2023-05-17T12:15:59.824Z,94798.53
2023-05-17T12:19:00.952Z,94789.63
2023-05-17T12:24:39.543Z,94803.75
2023-05-17T12:27:41.331Z,94812.16
2023-05-17T12:30:20.780Z,94809.88
2023-05-17T12:32:51.087Z,94816.13
2023-05-17T12:35:33.189Z,94805.88
2023-05-17T12:38:02.462Z,94800.34
2023-05-17T12:40:42.650Z,94802.75
2023-05-17T12:43:25.890Z,94797.19
2023-05-17T12:46:20.117Z,94796.44
2023-05-17T12:49:05.368Z,94779.13
2023-05-17T12:51:56.280Z,94792.31
2023-05-17T12:54:28.136Z,94789.75
2023-05-17T12:57:12.167Z,94787.63
2023-05-17T12:59:55.205Z,94782.22
2023-05-17T13:02:25.210Z,94780.78
2023-05-17T13:05:13.608Z,94778.31
2023-05-17T13:07:55.036Z,94773.13
2023-05-17T13:10:43.912Z,94784.66
2023-05-17T13:13:57.632Z,94785.47
2023-05-17T13:16:44.065Z,94779.00
2023-05-17T13:19:15.474Z,94768.84
2023-05-17T13:21:48.740Z,94757.84
2023-05-17T13:24:18.756Z,94762.88
2023-05-17T13:26:49.427Z,94761.00
2023-05-17T13:29:52.513Z,94778.19
2023-05-17T13:32:21.521Z,94778.22
2023-05-17T13:34:54.511Z,94777.19
2023-05-17T13:37:23.906Z,94788.63
2023-05-17T13:40:01.916Z,94787.09
2023-05-17T13:42:29.455Z,94786.34
2023-05-17T13:45:18.316Z,94788.59
2023-05-17T13:47:54.382Z,94776.72
2023-05-17T13:50:29.420Z,94760.88
2023-05-17T13:53:04.505Z,94768.16
2023-05-17T13:55:35.191Z,94755.69
2023-05-17T13:58:05.126Z,94776.53
2023-05-17T14:00:43.431Z,94787.38
2023-05-17T14:03:18.544Z,94790.53
2023-05-17T14:05:58.660Z,94775.97
2023-05-17T14:08:29.536Z,94789.44
2023-05-17T14:11:02.530Z,94779.91
2023-05-17T14:13:34.145Z,94783.03
2023-05-17T14:16:07.702Z,94778.47
2023-05-17T14:18:37.854Z,94775.69
2023-05-17T14:21:12.662Z,94780.84
2023-05-17T14:23:51.586Z,94775.28
2023-05-17T14:26:20.315Z,94765.09
2023-05-17T14:28:48.569Z,94761.41
2023-05-17T14:31:17.055Z,94770.59
2023-05-17T14:33:46.275Z,94759.03
2023-05-17T14:36:19.804Z,94767.88
2023-05-17T14:38:54.740Z,94772.97
2023-05-17T14:41:27.170Z,94770.56
2023-05-17T14:44:04.251Z,94778.06
2023-05-17T14:46:54.466Z,94771.47
2023-05-17T14:49:34.718Z,94778.91
2023-05-17T14:52:10.326Z,94776.53
2023-05-17T14:55:21.770Z,94767.13
2023-05-17T15:00:56.295Z,94762.84
2023-05-17T15:03:48.805Z,94756.28
2023-05-17T15:07:13.151Z,94755.34
2023-05-17T15:09:57.585Z,94757.19
2023-05-17T15:12:32.456Z,94768.47
2023-05-17T15:15:04.956Z,94776.44
2023-05-17T15:17:34.004Z,94774.06
2023-05-17T15:20:07.911Z,94783.16
2023-05-17T15:22:38.765Z,94785.50
2023-05-17T15:25:08.596Z,94780.06
2023-05-17T15:27:46.372Z,94774.59
2023-05-17T15:30:16.554Z,94778.13
2023-05-17T15:32:50.525Z,94776.16
2023-05-17T15:35:30.533Z,94766.75
2023-05-17T15:38:00.001Z,94777.38
2023-05-17T15:40:31.834Z,94776.97
2023-05-17T15:43:04.201Z,94779.97
2023-05-17T15:45:31.815Z,94780.78
2023-05-17T15:48:05.158Z,94779.56
2023-05-17T15:50:34.200Z,94779.16
2023-05-17T15:53:05.214Z,94783.06
2023-05-17T15:55:33.039Z,94783.41
2023-05-17T15:58:08.525Z,94788.44
2023-05-17T16:00:39.436Z,94790.78
2023-05-17T16:03:12.978Z,94793.16
2023-05-17T16:05:44.198Z,94783.78
2023-05-17T16:08:50.508Z,94774.84
2023-05-17T16:11:31.934Z,94782.34
2023-05-17T16:14:18.051Z,94771.47
2023-05-17T16:16:50.040Z,94771.06
2023-05-17T16:23:32.660Z,94771.84
2023-05-17T16:27:07.887Z,94771.03
2023-05-17T16:39:33.656Z,94794.50
2023-05-17T16:42:33.711Z,94792.41
2023-05-17T16:45:10.424Z,94791.16
2023-05-17T16:47:41.499Z,94796.72
2023-05-17T16:50:15.858Z,94786.59
2023-05-17T16:53:08.728Z,94795.22
2023-05-17T16:55:46.861Z,94786.56
2023-05-17T16:58:51.413Z,94792.50
2023-05-17T17:01:30.883Z,94785.84
2023-05-17T17:04:18.537Z,94783.19
2023-05-17T17:07:31.394Z,94787.13
2023-05-17T17:10:04.524Z,94793.69
2023-05-17T17:13:09.256Z,94794.47
2023-05-17T17:15:40.157Z,94791.25
2023-05-17T17:18:16.541Z,94787.63
2023-05-17T17:21:12.018Z,94788.84
2023-05-17T17:23:50.502Z,94783.72
2023-05-17T17:26:19.633Z,94787.25
2023-05-17T17:28:46.934Z,94786.56
2023-05-17T17:31:22.220Z,94799.94
2023-05-17T17:34:04.408Z,94810.09
2023-05-17T17:36:47.220Z,94797.72
2023-05-17T17:42:39.386Z,94810.31
2023-05-17T17:45:23.333Z,94805.97
2023-05-17T17:48:01.505Z,94805.97
2023-05-17T17:50:35.309Z,94812.56
2023-05-17T17:53:14.735Z,94818.38
2023-05-17T17:55:48.802Z,94818.34
2023-05-17T17:58:27.348Z,94823.81
2023-05-17T18:01:06.383Z,94821.63
2023-05-17T18:03:44.276Z,94826.38
2023-05-17T18:06:22.663Z,94825.59
2023-05-17T18:08:53.692Z,94825.53
2023-05-17T18:11:26.264Z,94823.03
2023-05-17T18:16:54.144Z,94828.72
2023-05-17T18:22:29.850Z,94829.53
2023-05-17T18:25:21.419Z,94834.22
2023-05-17T18:28:08.651Z,94835.72
2023-05-17T18:33:36.091Z,94830.75
2023-05-17T18:36:10.161Z,94838.13
2023-05-17T18:38:51.640Z,94835.72
2023-05-17T18:41:55.189Z,94840.16
2023-05-17T18:48:01.581Z,94840.75
2023-05-17T18:50:54.184Z,94839.25
2023-05-17T18:56:32.886Z,94853.56
2023-05-17T18:59:41.410Z,94847.44
2023-05-17T19:02:18.507Z,94843.44
2023-05-17T19:07:38.979Z,94843.13
2023-05-17T19:10:06.631Z,94842.50
2023-05-17T19:12:35.377Z,94853.63
2023-05-17T19:15:02.791Z,94851.56
2023-05-17T19:17:30.025Z,94856.78
2023-05-17T19:19:57.034Z,94848.47
2023-05-17T19:22:23.877Z,94852.41
2023-05-17T19:24:53.403Z,94850.06
2023-05-17T19:27:20.754Z,94853.47
2023-05-17T19:29:48.278Z,94855.34
2023-05-17T19:32:15.278Z,94858.00
2023-05-17T19:34:42.254Z,94856.44
2023-05-17T19:37:09.194Z,94865.22
2023-05-17T19:39:36.448Z,94869.22
2023-05-17T19:42:04.894Z,94859.84
2023-05-17T19:44:31.733Z,94871.00
2023-05-17T19:46:58.302Z,94865.66
2023-05-17T19:49:24.883Z,94873.38
2023-05-17T19:51:54.034Z,94877.03
2023-05-17T19:54:21.908Z,94866.03
2023-05-17T19:56:48.615Z,94871.84
2023-05-17T19:59:15.594Z,94876.22
2023-05-17T20:01:42.392Z,94878.41
2023-05-17T20:04:10.396Z,94872.28
2023-05-17T20:06:37.314Z,94873.69
2023-05-17T20:09:04.521Z,94877.13
2023-05-17T20:11:31.298Z,94875.53
2023-05-17T20:13:57.885Z,94874.13
2023-05-17T20:16:27.989Z,94875.97
2023-05-17T20:18:55.092Z,94871.69
2023-05-17T20:21:23.437Z,94870.53
2023-05-17T20:24:00.506Z,94869.69
2023-05-17T20:26:31.489Z,94880.03
2023-05-17T20:28:59.044Z,94877.75
2023-05-17T20:31:26.052Z,94883.88
2023-05-17T20:33:53.154Z,94881.44
2023-05-17T20:36:19.967Z,94881.25
2023-05-17T20:38:46.731Z,94886.78
2023-05-17T20:41:14.897Z,94880.31
2023-05-17T20:43:45.262Z,94876.97
2023-05-17T20:46:16.168Z,94877.94
2023-05-17T20:48:43.508Z,94876.78
2023-05-17T20:51:10.785Z,94875.56
2023-05-17T20:53:38.615Z,94871.09
2023-05-17T20:56:07.799Z,94867.94
2023-05-17T20:58:34.567Z,94880.09
2023-05-17T21:01:01.466Z,94866.44
2023-05-17T21:03:33.027Z,94871.97
2023-05-17T21:06:01.321Z,94872.66
2023-05-17T21:08:28.318Z,94865.91
2023-05-17T21:10:55.691Z,94863.19
2023-05-17T21:13:23.901Z,94874.06
2023-05-17T21:15:50.662Z,94864.56
2023-05-17T21:18:17.284Z,94872.34
2023-05-17T21:20:43.889Z,94869.53
2023-05-17T21:23:10.437Z,94862.88
2023-05-17T21:25:37.834Z,94873.38
2023-05-17T21:28:05.090Z,94859.72
2023-05-17T21:30:31.920Z,94857.91
2023-05-17T21:32:58.686Z,94863.94
2023-05-17T21:35:25.314Z,94861.22
2023-05-17T21:37:52.005Z,94865.50
2023-05-17T21:40:18.799Z,94857.38
2023-05-17T21:42:47.824Z,94859.97
2023-05-17T21:45:14.870Z,94847.91
2023-05-17T21:47:41.740Z,94852.63
2023-05-17T21:50:08.740Z,94862.59
2023-05-17T21:52:35.568Z,94851.66
2023-05-17T21:55:02.162Z,94851.97
2023-05-17T21:57:28.746Z,94855.41
2023-05-17T21:59:55.597Z,94844.91
2023-05-17T22:02:22.200Z,94842.09
2023-05-17T22:04:48.840Z,94839.81
2023-05-17T22:07:15.625Z,94837.00
2023-05-17T22:09:44.236Z,94838.13
2023-05-17T22:12:12.202Z,94846.28
2023-05-17T22:14:43.175Z,94840.16
2023-05-17T22:17:10.365Z,94845.22
2023-05-17T22:19:42.618Z,94848.66
2023-05-17T22:22:09.366Z,94837.94
2023-05-17T22:24:36.081Z,94841.00
2023-05-17T22:27:04.672Z,94838.59
2023-05-17T22:29:31.542Z,94828.53
2023-05-17T22:31:58.275Z,94833.63
2023-05-17T22:34:25.032Z,94826.50
2023-05-17T22:36:51.629Z,94826.88
2023-05-17T22:39:18.287Z,94833.22
2023-05-17T22:41:44.932Z,94835.47
2023-05-17T22:44:11.494Z,94835.38
2023-05-17T22:46:38.609Z,94827.50
2023-05-17T22:49:05.265Z,94830.00
2023-05-17T22:51:34.994Z,94825.38
2023-05-17T22:54:03.162Z,94830.06
2023-05-17T22:56:30.077Z,94832.88
2023-05-17T22:58:56.919Z,94821.47
2023-05-17T23:01:23.705Z,94823.72
2023-05-17T23:03:50.679Z,94830.50
2023-05-17T23:06:21.844Z,94824.84
2023-05-17T23:08:53.110Z,94824.63
2023-05-17T23:11:20.077Z,94828.72
2023-05-17T23:13:46.717Z,94818.13
2023-05-17T23:16:14.077Z,94817.22
2023-05-17T23:18:41.054Z,94815.63
2023-05-17T23:21:08.209Z,94815.53
2023-05-17T23:23:34.803Z,94811.47
2023-05-17T23:26:01.369Z,94805.94
2023-05-17T23:28:27.972Z,94806.75
2023-05-17T23:30:54.627Z,94805.84
2023-05-17T23:33:21.196Z,94804.16
2023-05-17T23:35:47.759Z,94801.09
2023-05-17T23:38:14.341Z,94798.28
2023-05-17T23:40:42.767Z,94791.28
2023-05-17T23:43:12.321Z,94792.31
2023-05-17T23:45:39.296Z,94793.44
2023-05-17T23:48:06.090Z,94788.72
2023-05-17T23:50:32.811Z,94784.53
2023-05-17T23:53:03.672Z,94779.00
2023-05-17T23:55:31.021Z,94784.06
2023-05-17T23:57:58.141Z,94787.34
